createdAt,value
2023-04-05T00:01:20.232Z,99126.20
2023-04-05T00:03:48.775Z,99124.30
2023-04-05T00:06:17.176Z,99121.52
2023-04-05T00:08:49.948Z,99123.19
2023-04-05T00:11:18.865Z,99117.95
2023-04-05T00:13:47.335Z,99118.34
2023-04-05T00:16:19.469Z,99114.27
2023-04-05T00:18:51.797Z,99118.09
2023-04-05T00:21:24.337Z,99115.77
2023-04-05T00:23:54.166Z,99112.65
2023-04-05T00:26:22.303Z,99115.27
2023-04-05T00:28:53.457Z,99114.00
2023-04-05T00:31:21.645Z,99119.83
2023-04-05T00:33:50.341Z,99113.20
2023-04-05T00:36:19.637Z,99116.73
2023-04-05T00:38:48.259Z,99119.55
2023-04-05T00:41:16.783Z,99120.64
2023-04-05T00:43:46.319Z,99118.02
2023-04-05T00:46:22.088Z,99118.08
2023-04-05T00:48:50.731Z,99118.16
2023-04-05T00:51:20.209Z,99119.10
2023-04-05T00:53:52.962Z,99120.78
2023-04-05T00:56:21.859Z,99120.90
2023-04-05T00:58:57.019Z,99116.66
2023-04-05T01:01:26.593Z,99115.06
2023-04-05T01:04:03.047Z,99113.35
2023-04-05T01:06:58.028Z,99115.38
2023-04-05T01:09:30.509Z,99112.79
2023-04-05T01:12:00.953Z,99112.05
2023-04-05T01:14:29.441Z,99103.66
2023-04-05T01:16:58.841Z,99101.80
2023-04-05T01:19:28.966Z,99098.89
2023-04-05T01:22:22.046Z,99098.42
2023-04-05T01:24:52.986Z,99096.74
2023-04-05T01:27:22.784Z,99095.90
2023-04-05T01:30:10.823Z,99095.42
2023-04-05T01:32:47.568Z,99097.17
2023-04-05T01:35:53.561Z,99098.59
2023-04-05T01:38:25.336Z,99102.23
2023-04-05T01:40:53.600Z,99101.04
2023-04-05T01:43:23.729Z,99102.28
2023-04-05T01:45:52.034Z,99101.85
2023-04-05T01:48:21.155Z,99095.58
2023-04-05T01:50:49.860Z,99099.58
2023-04-05T01:53:18.129Z,99098.41
2023-04-05T01:55:46.512Z,99095.11
2023-04-05T01:58:15.526Z,99095.92
2023-04-05T02:00:45.659Z,99095.05
2023-04-05T02:03:14.313Z,99096.70
2023-04-05T02:05:42.649Z,99092.58
2023-04-05T02:08:14.329Z,99094.56
2023-04-05T02:10:43.500Z,99100.51
2023-04-05T02:13:11.736Z,99099.63
2023-04-05T02:15:40.457Z,99102.69
2023-04-05T02:18:09.555Z,99098.42
2023-04-05T02:20:38.962Z,99098.90
2023-04-05T02:23:08.597Z,99094.92
2023-04-05T02:25:36.904Z,99095.20
2023-04-05T02:28:09.688Z,99094.84
2023-04-05T02:30:39.914Z,99093.92
2023-04-05T02:33:10.564Z,99097.44
2023-04-05T02:35:39.109Z,99096.73
2023-04-05T02:38:07.774Z,99099.23
2023-04-05T02:40:36.055Z,99095.95
2023-04-05T02:43:04.139Z,99097.42
2023-04-05T02:45:32.580Z,99097.38
2023-04-05T02:48:01.053Z,99095.29
2023-04-05T02:50:31.583Z,99094.03
2023-04-05T02:53:04.495Z,99100.67
2023-04-05T02:55:34.216Z,99099.45
2023-04-05T02:58:03.236Z,99098.94
2023-04-05T03:00:42.013Z,99095.55
2023-04-05T03:03:11.628Z,99097.27
2023-04-05T03:05:43.433Z,99095.80
2023-04-05T03:08:20.073Z,99098.70
2023-04-05T03:10:57.714Z,99091.14
2023-04-05T03:13:27.537Z,99094.52
2023-04-05T03:15:56.941Z,99093.82
2023-04-05T03:18:26.811Z,99093.59
2023-04-05T03:20:57.057Z,99095.62
2023-04-05T03:23:30.440Z,99093.03
2023-04-05T03:26:03.145Z,99095.41
2023-04-05T03:28:35.455Z,99099.51
2023-04-05T03:31:05.331Z,99099.48
2023-04-05T03:33:35.525Z,99099.95
2023-04-05T03:36:05.609Z,99100.22
2023-04-05T03:38:36.226Z,99096.74
2023-04-05T03:41:16.766Z,99095.16
2023-04-05T03:43:45.039Z,99096.16
2023-04-05T03:46:13.180Z,99096.20
2023-04-05T03:48:41.382Z,99098.27
2023-04-05T03:51:11.019Z,99097.80
2023-04-05T03:53:40.873Z,99096.48
2023-04-05T03:56:09.158Z,99095.32
2023-04-05T03:58:43.206Z,99092.09
2023-04-05T04:01:12.407Z,99095.01
2023-04-05T04:03:41.013Z,99092.79
2023-04-05T04:06:09.345Z,99091.62
2023-04-05T04:08:39.649Z,99095.95
2023-04-05T04:11:08.439Z,99093.27
2023-04-05T04:13:40.425Z,99088.41
2023-04-05T04:16:35.389Z,99088.86
2023-04-05T04:19:24.888Z,99087.75
2023-04-05T04:22:13.324Z,99089.84
2023-04-05T04:25:03.920Z,99088.70
2023-04-05T04:27:58.611Z,99086.70
2023-04-05T04:30:56.309Z,99091.21
2023-04-05T04:33:40.329Z,99089.06
2023-04-05T04:36:35.134Z,99088.94
2023-04-05T04:39:39.663Z,99083.59
2023-04-05T04:42:39.215Z,99088.64
2023-04-05T04:45:18.931Z,99092.48
2023-04-05T04:48:10.133Z,99090.40
2023-04-05T04:50:52.394Z,99090.16
2023-04-05T04:53:24.174Z,99087.04
2023-04-05T04:55:59.111Z,99086.58
2023-04-05T04:58:29.456Z,99091.05
2023-04-05T05:01:10.438Z,99090.78
2023-04-05T05:03:40.333Z,99089.56
2023-04-05T05:06:08.624Z,99094.24
2023-04-05T05:08:37.443Z,99096.38
2023-04-05T05:11:07.388Z,99091.70
2023-04-05T05:17:09.857Z,99094.71
2023-04-05T05:19:38.120Z,99099.77
2023-04-05T05:22:05.095Z,99096.84
2023-04-05T05:24:33.753Z,99086.41
2023-04-05T05:27:00.542Z,99085.86
2023-04-05T05:29:32.313Z,99088.41
2023-04-05T05:39:12.378Z,99079.45
2023-04-05T05:41:40.587Z,99073.14
2023-04-05T05:44:08.459Z,99073.93
2023-04-05T05:46:40.640Z,99070.71
2023-04-05T05:49:09.151Z,99072.31
2023-04-05T05:51:37.416Z,99070.39
2023-04-05T05:54:05.707Z,99077.73
2023-04-05T05:56:34.007Z,99071.85
2023-04-05T05:59:02.218Z,99072.30
2023-04-05T06:01:43.171Z,99068.46
2023-04-05T06:04:11.500Z,99068.70
2023-04-05T06:06:42.900Z,99075.52
2023-04-05T06:09:11.712Z,99073.25
2023-04-05T06:11:49.755Z,99071.81
2023-04-05T06:14:25.104Z,99073.90
2023-04-05T06:16:53.241Z,99074.63
2023-04-05T06:19:21.381Z,99079.73
2023-04-05T06:21:49.539Z,99089.14
2023-04-05T06:24:17.904Z,99088.21
2023-04-05T06:26:46.315Z,99076.13
2023-04-05T06:29:19.145Z,99082.41
2023-04-05T06:31:48.452Z,99089.65
2023-04-05T06:34:16.755Z,99089.30
2023-04-05T06:36:47.639Z,99090.31
2023-04-05T06:39:16.653Z,99083.49
2023-04-05T06:41:45.057Z,99083.41
2023-04-05T06:44:13.677Z,99086.02
2023-04-05T06:46:41.981Z,99079.23
2023-04-05T06:49:11.120Z,99084.08
2023-04-05T06:51:39.563Z,99084.66
2023-04-05T06:54:08.380Z,99091.20
2023-04-05T06:56:37.895Z,99089.04
2023-04-05T06:59:06.436Z,99087.48
2023-04-05T07:01:37.211Z,99086.00
2023-04-05T07:04:06.950Z,99085.19
2023-04-05T07:06:39.060Z,99086.30
2023-04-05T07:09:08.425Z,99088.71
2023-04-05T07:11:36.560Z,99089.55
2023-04-05T07:14:05.615Z,99087.84
2023-04-05T07:16:35.833Z,99090.74
2023-04-05T07:19:06.308Z,99087.65
2023-04-05T07:21:34.924Z,99085.20
2023-04-05T07:24:07.022Z,99084.77
2023-04-05T07:26:36.119Z,99083.47
2023-04-05T07:29:04.813Z,99082.89
2023-04-05T07:31:33.997Z,99081.44
2023-04-05T07:34:02.756Z,99082.96
2023-04-05T07:36:30.950Z,99080.28
2023-04-05T07:39:00.886Z,99076.08
2023-04-05T07:41:35.613Z,99077.90
2023-04-05T07:44:05.591Z,99070.81
2023-04-05T07:46:35.672Z,99075.83
2023-04-05T07:49:04.087Z,99072.09
2023-04-05T07:51:36.339Z,99073.13
2023-04-05T07:54:08.082Z,99075.54
2023-04-05T07:56:39.746Z,99071.46
2023-04-05T07:59:08.944Z,99072.16
2023-04-05T08:01:37.186Z,99076.91
2023-04-05T08:04:05.418Z,99077.38
2023-04-05T08:06:33.899Z,99073.98
2023-04-05T08:09:05.719Z,99074.60
2023-04-05T08:11:35.653Z,99067.52
2023-04-05T08:14:03.794Z,99073.11
2023-04-05T08:16:33.702Z,99069.59
2023-04-05T08:19:02.184Z,99072.45
2023-04-05T08:21:30.438Z,99079.89
2023-04-05T08:23:59.002Z,99079.55
2023-04-05T08:26:27.141Z,99079.50
2023-04-05T08:28:56.000Z,99076.93
2023-04-05T08:31:23.919Z,99075.27
2023-04-05T08:33:52.934Z,99071.02
2023-04-05T08:36:21.900Z,99072.48
2023-04-05T08:38:50.080Z,99069.98
2023-04-05T08:41:23.241Z,99066.45
2023-04-05T08:43:59.386Z,99062.63
2023-04-05T08:46:27.662Z,99062.20
2023-04-05T08:48:58.191Z,99065.45
2023-04-05T08:51:26.798Z,99065.86
2023-04-05T08:53:56.101Z,99060.49
2023-04-05T08:56:31.221Z,99056.85
2023-04-05T08:59:04.851Z,99060.66
2023-04-05T09:01:36.663Z,99059.16
2023-04-05T09:04:22.317Z,99057.09
2023-04-05T09:06:51.382Z,99059.61
2023-04-05T09:09:21.493Z,99060.24
2023-04-05T09:11:50.401Z,99064.00
2023-04-05T09:14:18.545Z,99055.00
2023-04-05T09:16:47.250Z,99056.00
2023-04-05T09:19:16.902Z,99052.06
2023-04-05T09:22:05.033Z,99050.91
2023-04-05T09:24:41.867Z,99052.15
2023-04-05T09:27:17.786Z,99045.68
2023-04-05T09:29:49.552Z,99053.83
2023-04-05T09:32:20.664Z,99048.69
2023-04-05T09:34:49.951Z,99048.80
2023-04-05T09:37:23.420Z,99046.48
2023-04-05T09:39:52.226Z,99047.48
2023-04-05T09:42:25.803Z,99049.96
2023-04-05T09:45:02.569Z,99049.55
2023-04-05T09:47:35.254Z,99043.70
2023-04-05T09:50:15.221Z,99048.27
2023-04-05T09:52:43.798Z,99044.36
2023-04-05T09:55:12.511Z,99039.06
2023-04-05T09:57:41.411Z,99042.52
2023-04-05T10:00:18.318Z,99030.98
2023-04-05T10:02:47.803Z,99031.13
2023-04-05T10:05:16.146Z,99036.73
2023-04-05T10:07:46.350Z,99028.76
2023-04-05T10:10:16.269Z,99025.49
2023-04-05T10:12:45.656Z,99023.13
2023-04-05T10:15:14.585Z,99031.59
2023-04-05T10:18:21.753Z,99021.04
2023-04-05T10:20:55.094Z,99019.20
2023-04-05T10:23:27.889Z,99012.33
2023-04-05T10:33:48.040Z,99022.39
2023-04-05T10:36:39.978Z,99010.14
2023-04-05T10:39:41.902Z,99013.75
2023-04-05T10:42:41.504Z,99007.80
2023-04-05T10:45:17.267Z,99011.21
2023-04-05T10:47:55.924Z,99001.98
2023-04-05T10:50:25.819Z,99011.98
2023-04-05T10:52:53.909Z,99012.70
2023-04-05T10:55:22.445Z,99008.97
2023-04-05T10:57:51.548Z,99019.00
2023-04-05T11:00:22.764Z,99016.82
2023-04-05T11:02:55.319Z,99012.23
2023-04-05T11:05:29.558Z,99008.80
2023-04-05T11:08:00.719Z,99011.23
2023-04-05T11:10:38.035Z,99017.08
2023-04-05T11:13:11.111Z,99014.56
2023-04-05T11:15:39.877Z,99011.88
2023-04-05T11:18:20.690Z,99011.23
2023-04-05T11:21:06.321Z,99023.66
2023-04-05T11:24:00.707Z,99016.07
2023-04-05T11:26:34.056Z,99015.67
2023-04-05T11:29:02.423Z,99013.58
2023-04-05T11:31:31.998Z,99008.56
2023-04-05T11:34:12.691Z,99012.53
2023-04-05T11:36:48.542Z,99006.50
2023-04-05T11:39:22.531Z,99007.53
2023-04-05T11:42:02.178Z,99009.26
2023-04-05T11:44:46.160Z,99003.79
2023-04-05T11:47:17.601Z,99005.02
2023-04-05T11:49:47.387Z,99005.70
2023-04-05T11:52:17.515Z,99017.23
2023-04-05T11:54:46.821Z,99008.94
2023-04-05T11:57:19.620Z,99008.77
2023-04-05T11:59:52.326Z,99005.51
2023-04-05T12:02:21.342Z,99005.70
2023-04-05T12:04:58.987Z,98997.48
2023-04-05T12:07:36.962Z,98996.30
2023-04-05T12:10:08.405Z,99000.13
2023-04-05T12:12:38.553Z,98998.96
2023-04-05T12:15:10.946Z,98990.70
2023-04-05T12:17:51.958Z,98992.73
2023-04-05T12:20:27.101Z,98991.16
2023-04-05T12:22:56.569Z,98992.86
2023-04-05T12:25:24.573Z,98992.14
2023-04-05T12:27:53.743Z,98979.59
2023-04-05T12:30:23.320Z,98984.27
2023-04-05T12:32:55.430Z,98978.77
2023-04-05T12:35:32.410Z,98978.95
2023-04-05T12:38:05.765Z,98974.41
2023-04-05T12:40:34.275Z,98978.69
2023-04-05T12:43:07.142Z,98980.23
2023-04-05T12:45:44.070Z,98983.83
2023-04-05T12:48:14.020Z,98977.98
2023-04-05T12:50:44.003Z,98971.95
2023-04-05T12:53:20.662Z,98974.02
2023-04-05T12:55:52.687Z,98976.77
2023-04-05T12:58:32.744Z,98973.33
2023-04-05T13:01:01.152Z,98989.00
2023-04-05T13:03:30.260Z,98977.63
2023-04-05T13:05:59.833Z,98974.20
2023-04-05T13:08:30.646Z,98976.75
2023-04-05T13:10:58.636Z,98973.80
2023-04-05T13:13:26.755Z,98977.39
2023-04-05T13:15:56.022Z,98968.58
2023-04-05T13:18:24.647Z,98956.36
2023-04-05T13:20:54.667Z,98953.42
2023-04-05T13:23:23.070Z,98953.08
2023-04-05T13:25:51.171Z,98952.75
2023-04-05T13:28:21.111Z,98948.45
2023-04-05T13:30:50.114Z,98944.52
2023-04-05T13:34:34.122Z,98947.11
2023-04-05T13:37:00.938Z,98946.58
2023-04-05T13:39:27.963Z,98947.05
2023-04-05T13:41:56.683Z,98938.23
2023-04-05T13:44:25.610Z,98946.14
2023-04-05T13:46:52.721Z,98936.46
2023-04-05T13:49:19.305Z,98941.73
2023-04-05T13:51:47.598Z,98951.17
2023-04-05T13:54:15.369Z,98945.33
2023-04-05T13:56:47.373Z,98954.61
2023-04-05T13:59:16.256Z,98938.63
2023-04-05T14:01:43.192Z,98932.81
2023-04-05T14:04:10.099Z,98936.29
2023-04-05T14:06:37.374Z,98945.93
2023-04-05T14:09:04.286Z,98944.73
2023-04-05T14:11:31.948Z,98946.06
2023-04-05T14:13:59.628Z,98949.98
2023-04-05T14:16:29.321Z,98937.92
2023-04-05T14:18:57.312Z,98940.14
2023-04-05T14:21:25.260Z,98936.38
2023-04-05T14:23:56.192Z,98942.58
2023-04-05T14:26:25.416Z,98942.73
2023-04-05T14:28:53.075Z,98939.13
2023-04-05T14:31:25.966Z,98939.97
2023-04-05T14:33:53.524Z,98937.19
2023-04-05T14:36:20.351Z,98947.27
2023-04-05T14:38:55.836Z,98944.29
2023-04-05T14:41:22.854Z,98943.20
2023-04-05T14:43:49.801Z,98943.66
2023-04-05T14:46:16.895Z,98940.88
2023-04-05T14:48:43.816Z,98949.10
2023-04-05T14:51:10.467Z,98947.33
2023-04-05T14:53:37.335Z,98947.30
2023-04-05T14:56:05.798Z,98947.30
2023-04-05T14:58:33.361Z,98951.42
2023-04-05T15:00:59.992Z,98957.92
2023-04-05T15:03:27.606Z,98956.52
2023-04-05T15:05:54.594Z,98955.61
2023-04-05T15:08:21.727Z,98953.00
2023-04-05T15:10:52.632Z,98944.90
2023-04-05T15:13:21.171Z,98944.73
2023-04-05T15:15:47.696Z,98953.30
2023-04-05T15:18:19.820Z,98961.86
2023-04-05T15:20:46.637Z,98958.20
2023-04-05T15:23:13.643Z,98961.10
2023-04-05T15:25:40.674Z,98968.65
2023-04-05T15:28:07.478Z,98968.30
2023-04-05T15:30:35.405Z,98975.52
2023-04-05T15:33:02.359Z,98974.70
2023-04-05T15:35:29.317Z,98983.95
2023-04-05T15:37:56.115Z,98983.25
2023-04-05T15:40:22.940Z,98983.89
2023-04-05T15:42:49.761Z,98983.03
2023-04-05T15:45:16.620Z,98986.09
2023-04-05T15:47:43.673Z,98987.25
2023-04-05T15:50:10.978Z,98980.99
2023-04-05T15:52:37.679Z,98983.16
2023-04-05T15:55:05.534Z,98982.77
2023-04-05T15:57:32.338Z,98979.63
2023-04-05T15:59:59.635Z,98981.63
2023-04-05T16:02:26.472Z,98994.80
2023-04-05T16:04:53.243Z,98983.41
2023-04-05T16:07:20.594Z,98995.36
2023-04-05T16:09:47.700Z,98994.96
2023-04-05T16:12:14.771Z,98993.36
2023-04-05T16:14:43.540Z,98995.02
2023-04-05T16:17:10.931Z,99008.67
2023-04-05T16:19:37.911Z,99001.75
2023-04-05T16:22:05.534Z,99001.31
2023-04-05T16:24:35.992Z,99005.19
2023-04-05T16:27:07.594Z,99004.10
2023-04-05T16:29:35.379Z,99008.67
2023-04-05T16:32:02.200Z,99010.83
2023-04-05T16:34:30.430Z,99012.50
2023-04-05T16:36:57.723Z,99013.11
2023-04-05T16:39:24.379Z,99012.73
2023-04-05T16:41:51.232Z,99010.95
2023-04-05T16:44:17.904Z,99009.23
2023-04-05T16:46:46.676Z,99012.66
2023-04-05T16:49:15.065Z,99016.39
2023-04-05T16:51:42.166Z,99013.78
2023-04-05T16:54:08.947Z,99016.65
2023-04-05T16:56:36.482Z,99013.73
2023-04-05T16:59:06.727Z,99017.11
2023-04-05T17:01:34.743Z,99018.09
2023-04-05T17:04:03.166Z,99019.63
2023-04-05T17:06:31.198Z,99013.60
2023-04-05T17:08:59.083Z,99006.06
2023-04-05T17:11:27.638Z,99009.81
2023-04-05T17:13:58.558Z,99016.31
2023-04-05T17:16:25.262Z,99017.81
2023-04-05T17:18:54.455Z,99020.54
2023-04-05T17:21:28.611Z,99025.48
2023-04-05T17:23:55.916Z,99023.21
2023-04-05T17:26:23.316Z,99022.34
2023-04-05T17:28:50.696Z,99025.56
2023-04-05T17:31:18.675Z,99031.37
2023-04-05T17:33:48.500Z,99031.48
2023-04-05T17:36:17.017Z,99039.86
2023-04-05T17:38:43.932Z,99043.21
2023-04-05T17:41:11.196Z,99049.80
2023-04-05T17:43:38.039Z,99049.50
2023-04-05T17:46:05.111Z,99046.77
2023-04-05T17:48:32.199Z,99051.79
2023-04-05T17:51:08.261Z,99056.47
2023-04-05T17:53:35.284Z,99058.59
2023-04-05T17:56:02.647Z,99067.21
2023-04-05T17:58:31.756Z,99062.49
2023-04-05T18:00:58.983Z,99067.34
2023-04-05T18:03:27.067Z,99069.45
2023-04-05T18:05:54.535Z,99066.59
2023-04-05T18:08:25.764Z,99071.27
2023-04-05T18:10:57.127Z,99071.49
2023-04-05T18:13:24.340Z,99070.87
2023-04-05T18:15:54.980Z,99071.60
2023-04-05T18:18:22.058Z,99062.72
2023-04-05T18:20:52.788Z,99066.02
2023-04-05T18:23:28.899Z,99066.59
2023-04-05T18:25:56.718Z,99068.89
2023-04-05T18:28:23.961Z,99070.18
2023-04-05T18:30:51.373Z,99066.64
2023-04-05T18:33:21.747Z,99064.06
2023-04-05T18:35:49.796Z,99055.86
2023-04-05T18:38:16.657Z,99056.76
2023-04-05T18:40:43.449Z,99054.77
2023-04-05T18:43:10.436Z,99052.12
2023-04-05T18:45:38.403Z,99053.58
2023-04-05T18:48:07.218Z,99049.77
2023-04-05T18:50:34.606Z,99046.29
2023-04-05T18:53:01.659Z,99044.52
2023-04-05T18:55:30.638Z,99045.15
2023-04-05T18:57:57.710Z,99049.55
2023-04-05T19:00:25.518Z,99043.58
2023-04-05T19:02:53.206Z,99036.56
2023-04-05T19:05:20.379Z,99030.91
2023-04-05T19:07:49.521Z,99034.48
2023-04-05T19:10:16.873Z,99031.90
2023-04-05T19:12:43.772Z,99028.17
2023-04-05T19:15:14.113Z,99026.98
2023-04-05T19:17:41.772Z,99021.85
2023-04-05T19:20:08.763Z,99026.81
2023-04-05T19:22:35.623Z,99021.31
2023-04-05T19:25:03.257Z,99019.92
2023-04-05T19:27:34.987Z,99019.06
2023-04-05T19:30:07.735Z,99015.94
2023-04-05T19:32:42.405Z,99013.51
2023-04-05T19:35:09.655Z,99012.30
2023-04-05T19:37:36.386Z,99009.91
2023-04-05T19:40:05.464Z,99009.96
2023-04-05T19:42:32.521Z,99008.81
2023-04-05T19:45:00.152Z,99007.45
2023-04-05T19:47:27.111Z,99007.96
2023-04-05T19:49:58.589Z,99004.89
2023-04-05T19:52:40.156Z,98997.27
2023-04-05T19:55:40.395Z,98995.23
2023-04-05T19:58:08.304Z,98998.35
2023-04-05T20:00:51.258Z,98998.36
2023-04-05T20:03:38.692Z,98998.19
2023-04-05T20:06:11.850Z,98992.23
2023-04-05T20:08:43.390Z,98994.45
2023-04-05T20:11:14.996Z,98992.90
2023-04-05T20:13:48.069Z,98992.36
2023-04-05T20:16:15.771Z,98995.43
2023-04-05T20:18:44.555Z,98995.10
2023-04-05T20:21:13.252Z,98997.34
2023-04-05T20:23:43.196Z,98996.64
2023-04-05T20:26:14.698Z,98991.48
2023-04-05T20:28:55.159Z,98986.95
2023-04-05T20:31:23.152Z,98983.61
2023-04-05T20:36:42.634Z,98982.23
2023-04-05T20:39:12.086Z,98975.46
2023-04-05T20:41:40.819Z,98981.40
2023-04-05T20:44:10.136Z,98975.72
2023-04-05T20:46:39.493Z,98971.23
2023-04-05T20:49:08.060Z,98969.64
2023-04-05T20:51:36.606Z,98973.55
2023-04-05T20:54:05.759Z,98971.50
2023-04-05T20:56:36.632Z,98965.54
2023-04-05T20:59:05.142Z,98963.28
2023-04-05T21:01:35.967Z,98962.95
2023-04-05T21:04:05.866Z,98966.02
2023-04-05T21:06:36.578Z,98967.19
2023-04-05T21:09:05.186Z,98962.40
2023-04-05T21:11:36.087Z,98958.64
2023-04-05T21:14:05.485Z,98950.92
2023-04-05T21:16:33.978Z,98945.08
2023-04-05T21:19:02.052Z,98946.64
2023-04-05T21:21:31.262Z,98942.73
2023-04-05T21:23:59.354Z,98938.45
2023-04-05T21:26:27.580Z,98937.77
2023-04-05T21:28:55.820Z,98931.27
2023-04-05T21:31:24.039Z,98930.75
2023-04-05T21:33:52.588Z,98929.54
2023-04-05T21:36:20.898Z,98924.42
2023-04-05T21:38:49.281Z,98920.27
2023-04-05T21:41:17.344Z,98913.23
2023-04-05T21:43:48.081Z,98911.88
2023-04-05T21:46:16.854Z,98916.81
2023-04-05T21:48:46.214Z,98915.11
2023-04-05T21:51:14.722Z,98918.67
2023-04-05T21:53:43.515Z,98907.91
2023-04-05T21:56:13.146Z,98918.29
2023-04-05T21:58:42.861Z,98918.79
2023-04-05T22:01:11.042Z,98914.29
2023-04-05T22:03:41.490Z,98909.84
2023-04-05T22:06:09.895Z,98908.80
2023-04-05T22:08:38.150Z,98903.83
2023-04-05T22:11:06.325Z,98902.81
2023-04-05T22:13:36.459Z,98888.64
2023-04-05T22:16:04.879Z,98887.05
2023-04-05T22:18:33.526Z,98891.48
2023-04-05T22:21:01.731Z,98880.35
2023-04-05T22:23:29.988Z,98875.89
2023-04-05T22:25:58.171Z,98876.20
2023-04-05T22:28:27.066Z,98872.77
2023-04-05T22:30:55.368Z,98866.79
2023-04-05T22:33:24.464Z,98864.21
2023-04-05T22:35:52.701Z,98865.38
2023-04-05T22:38:21.559Z,98864.52
2023-04-05T22:40:50.034Z,98856.86
2023-04-05T22:43:18.340Z,98851.56
2023-04-05T22:45:49.778Z,98853.11
2023-04-05T22:48:18.399Z,98853.29
2023-04-05T22:50:46.466Z,98851.70
2023-04-05T22:53:14.585Z,98845.34
2023-04-05T22:55:47.571Z,98843.44
2023-04-05T22:58:16.764Z,98839.66
2023-04-05T23:00:44.932Z,98839.77
2023-04-05T23:03:19.282Z,98835.83
2023-04-05T23:05:48.360Z,98824.34
2023-04-05T23:08:16.497Z,98825.16
2023-04-05T23:10:44.959Z,98823.10
2023-04-05T23:13:13.551Z,98822.06
2023-04-05T23:15:41.864Z,98815.21
2023-04-05T23:18:11.109Z,98809.74
2023-04-05T23:20:40.468Z,98810.23
2023-04-05T23:23:08.763Z,98812.75
2023-04-05T23:25:37.254Z,98814.92
2023-04-05T23:28:06.026Z,98808.38
2023-04-05T23:30:35.359Z,98800.34
2023-04-05T23:33:04.636Z,98792.63
2023-04-05T23:35:33.176Z,98788.84
2023-04-05T23:38:01.814Z,98787.45
2023-04-05T23:40:30.106Z,98776.55
2023-04-05T23:43:01.571Z,98775.99
2023-04-05T23:45:30.064Z,98772.20
2023-04-05T23:47:58.698Z,98765.55
2023-04-05T23:50:26.966Z,98765.85
2023-04-05T23:52:55.526Z,98755.23
2023-04-05T23:55:26.386Z,98751.28
2023-04-05T23:57:57.769Z,98745.27
